createdAt,value
2022-08-04T00:00:12.995Z,28.27
2022-08-04T00:02:51.780Z,28.11
2022-08-04T00:05:52.464Z,28.26
2022-08-04T00:08:50.533Z,28.25
2022-08-04T00:11:26.115Z,28.22
2022-08-04T00:14:03.864Z,28.16
2022-08-04T00:16:37.909Z,28.03
2022-08-04T00:19:18.647Z,28.01
2022-08-04T00:22:07.286Z,27.91
2022-08-04T00:24:35.503Z,27.89
2022-08-04T00:27:02.721Z,27.94
2022-08-04T00:29:31.046Z,27.94
2022-08-04T00:31:58.202Z,27.93
2022-08-04T00:34:31.410Z,27.87
2022-08-04T00:36:58.610Z,27.86
2022-08-04T00:39:26.966Z,27.82
2022-08-04T00:42:04.638Z,27.77
2022-08-04T00:44:40.115Z,27.72
2022-08-04T00:47:33.641Z,27.66
2022-08-04T00:50:10.679Z,27.64
2022-08-04T00:53:06.215Z,27.54
2022-08-04T00:56:27.810Z,27.54
2022-08-04T00:59:17.893Z,26.29
2022-08-04T01:02:06.331Z,26.67
2022-08-04T01:04:50.686Z,26.85
2022-08-04T01:07:45.197Z,27.02
2022-08-04T01:10:40.258Z,27.00
2022-08-04T01:13:43.655Z,26.80
2022-08-04T01:16:16.232Z,26.87
2022-08-04T01:19:06.076Z,26.92
2022-08-04T01:21:57.123Z,26.89
2022-08-04T01:24:45.833Z,26.80
2022-08-04T01:27:57.712Z,26.80
2022-08-04T01:30:27.622Z,26.65
2022-08-04T01:33:13.231Z,26.40
2022-08-04T01:35:53.785Z,26.38
2022-08-04T01:38:39.108Z,25.79
2022-08-04T01:41:08.044Z,26.24
2022-08-04T01:43:40.732Z,26.33
2022-08-04T01:46:12.769Z,26.36
2022-08-04T01:48:41.042Z,26.52
2022-08-04T01:51:10.244Z,26.56
2022-08-04T01:53:41.418Z,26.59
2022-08-04T01:56:11.168Z,26.44
2022-08-04T01:58:40.981Z,25.85
2022-08-04T02:01:12.482Z,26.22
2022-08-04T02:04:20.461Z,26.45
2022-08-04T02:06:49.737Z,26.27
2022-08-04T02:09:24.346Z,25.52
2022-08-04T02:12:16.211Z,25.86
2022-08-04T02:14:59.579Z,25.06
2022-08-04T02:17:40.953Z,24.18
2022-08-04T02:20:15.324Z,25.31
2022-08-04T02:22:58.366Z,25.81
2022-08-04T02:25:29.032Z,26.07
2022-08-04T02:28:32.761Z,26.05
2022-08-04T02:31:17.883Z,26.18
2022-08-04T02:34:37.282Z,26.31
2022-08-04T02:37:05.332Z,26.37
2022-08-04T02:39:48.278Z,26.37
2022-08-04T02:42:16.711Z,26.39
2022-08-04T02:44:48.903Z,26.40
2022-08-04T02:47:20.278Z,26.14
2022-08-04T02:49:50.500Z,25.86
2022-08-04T02:52:21.648Z,26.23
2022-08-04T02:54:53.916Z,26.29
2022-08-04T02:57:27.296Z,26.21
2022-08-04T03:00:09.079Z,26.27
2022-08-04T03:02:58.747Z,25.96
2022-08-04T03:05:54.150Z,26.00
2022-08-04T03:08:36.909Z,26.01
2022-08-04T03:11:44.352Z,26.07
2022-08-04T03:14:22.753Z,25.99
2022-08-04T03:17:07.809Z,25.95
2022-08-04T03:20:07.142Z,25.97
2022-08-04T03:23:13.959Z,25.81
2022-08-04T03:26:02.425Z,25.75
2022-08-04T03:29:02.878Z,25.68
2022-08-04T03:32:06.421Z,25.85
2022-08-04T03:35:22.973Z,25.80
2022-08-04T03:38:24.243Z,25.77
2022-08-04T03:41:18.234Z,25.66
2022-08-04T03:44:38.871Z,25.71
2022-08-04T03:47:55.233Z,25.67
2022-08-04T03:51:35.500Z,25.59
2022-08-04T03:54:21.065Z,25.56
2022-08-04T03:57:19.285Z,25.54
2022-08-04T04:00:18.013Z,25.53
2022-08-04T04:03:28.113Z,25.62
2022-08-04T04:06:32.905Z,25.69
2022-08-04T04:09:28.739Z,25.57
2022-08-04T04:12:21.371Z,25.30
2022-08-04T04:15:00.231Z,25.41
2022-08-04T04:17:46.990Z,25.61
2022-08-04T04:20:19.769Z,25.76
2022-08-04T04:23:47.699Z,25.70
2022-08-04T04:26:53.058Z,25.72
2022-08-04T04:29:56.797Z,25.40
2022-08-04T04:32:32.955Z,25.85
2022-08-04T04:35:29.544Z,26.07
2022-08-04T04:38:17.199Z,25.67
2022-08-04T04:40:57.177Z,26.13
2022-08-04T04:43:52.017Z,26.09
2022-08-04T04:46:46.999Z,26.41
2022-08-04T04:49:40.807Z,26.63
2022-08-04T04:52:43.815Z,26.81
2022-08-04T04:55:21.554Z,27.01
2022-08-04T04:57:55.360Z,27.09
2022-08-04T05:00:26.731Z,26.81
2022-08-04T05:03:29.876Z,27.24
2022-08-04T05:07:07.488Z,27.48
2022-08-04T05:09:59.739Z,27.55
2022-08-04T05:14:31.768Z,27.86
2022-08-04T05:15:30.568Z,28.10
2022-08-04T05:18:01.018Z,28.02
2022-08-04T05:20:45.933Z,28.14
2022-08-04T05:23:25.150Z,28.44
2022-08-04T05:26:00.300Z,28.36
2022-08-04T05:28:45.656Z,28.25
2022-08-04T05:31:21.305Z,28.38
2022-08-04T05:33:54.243Z,28.86
2022-08-04T05:36:40.408Z,29.26
2022-08-04T05:39:15.634Z,29.46
2022-08-04T05:41:45.885Z,29.71
2022-08-04T05:44:18.368Z,29.51
2022-08-04T05:46:54.157Z,29.93
2022-08-04T05:49:24.926Z,30.14
2022-08-04T05:51:55.132Z,30.32
2022-08-04T05:54:24.446Z,30.44
2022-08-04T05:56:52.058Z,30.54
2022-08-04T05:59:20.645Z,30.70
2022-08-04T06:01:56.580Z,30.84
2022-08-04T06:04:32.240Z,30.97
2022-08-04T06:06:59.160Z,31.16
2022-08-04T06:09:26.137Z,30.86
2022-08-04T06:12:00.544Z,31.26
2022-08-04T06:14:40.657Z,31.35
2022-08-04T06:18:32.659Z,30.96
2022-08-04T06:20:18.013Z,30.95
2022-08-04T06:22:49.398Z,30.99
2022-08-04T06:25:22.414Z,31.35
2022-08-04T06:27:51.164Z,31.73
2022-08-04T06:30:19.493Z,31.97
2022-08-04T06:32:48.954Z,31.88
2022-08-04T06:35:20.024Z,32.24
2022-08-04T06:37:48.209Z,32.49
2022-08-04T06:40:31.569Z,32.71
2022-08-04T06:43:07.902Z,32.23
2022-08-04T06:45:39.802Z,32.04
2022-08-04T06:48:07.357Z,31.98
2022-08-04T06:51:29.518Z,32.04
2022-08-04T06:53:27.247Z,31.98
2022-08-04T06:55:56.271Z,32.32
2022-08-04T06:58:24.852Z,32.74
2022-08-04T07:00:52.882Z,32.91
2022-08-04T07:03:21.743Z,32.80
2022-08-04T07:05:50.356Z,33.18
2022-08-04T07:08:17.699Z,33.60
2022-08-04T07:10:45.537Z,33.27
2022-08-04T07:13:13.455Z,32.93
2022-08-04T07:15:45.246Z,33.52
2022-08-04T07:18:12.205Z,32.84
2022-08-04T07:20:44.873Z,33.28
2022-08-04T07:23:17.458Z,33.10
2022-08-04T07:26:00.191Z,33.53
2022-08-04T07:28:37.435Z,34.16
2022-08-04T07:31:06.204Z,34.15
2022-08-04T07:33:33.386Z,34.46
2022-08-04T07:36:09.878Z,34.20
2022-08-04T07:38:48.571Z,34.17
2022-08-04T07:41:39.076Z,34.96
2022-08-04T07:44:08.217Z,34.59
2022-08-04T07:46:37.052Z,34.46
2022-08-04T07:49:05.706Z,35.26
2022-08-04T07:51:35.491Z,35.40
2022-08-04T07:54:05.657Z,34.86
2022-08-04T07:56:37.188Z,34.41
2022-08-04T07:59:04.787Z,34.23
2022-08-04T08:01:31.997Z,34.85
2022-08-04T08:04:00.718Z,35.34
2022-08-04T08:06:32.677Z,34.83
2022-08-04T08:09:13.628Z,34.97
2022-08-04T08:12:38.402Z,34.75
2022-08-04T08:14:31.614Z,34.21
2022-08-04T08:17:02.396Z,34.66
2022-08-04T08:19:31.240Z,35.24
2022-08-04T08:22:00.911Z,35.39
2022-08-04T08:24:37.152Z,34.68
2022-08-04T08:27:05.009Z,34.66
2022-08-04T08:29:35.084Z,34.23
2022-08-04T08:32:08.110Z,34.26
2022-08-04T08:34:36.187Z,35.53
2022-08-04T08:37:42.138Z,34.48
2022-08-04T08:40:41.558Z,34.14
2022-08-04T08:44:05.669Z,34.33
2022-08-04T08:46:50.472Z,35.40
2022-08-04T08:50:01.148Z,35.86
2022-08-04T08:53:01.219Z,34.95
2022-08-04T08:55:49.354Z,36.40
2022-08-04T08:59:07.060Z,36.72
2022-08-04T09:02:10.629Z,35.30
2022-08-04T09:05:12.491Z,36.38
2022-08-04T09:08:30.700Z,37.28
2022-08-04T09:11:06.639Z,36.39
2022-08-04T09:13:54.258Z,36.96
2022-08-04T09:16:33.238Z,37.15
2022-08-04T09:19:38.910Z,38.40
2022-08-04T09:22:38.412Z,38.56
2022-08-04T09:25:26.651Z,36.76
2022-08-04T09:28:09.360Z,36.12
2022-08-04T09:31:00.143Z,36.91
2022-08-04T09:33:52.905Z,37.19
2022-08-04T09:36:31.200Z,36.55
2022-08-04T09:39:22.804Z,37.82
2022-08-04T09:42:29.420Z,37.15
2022-08-04T09:45:06.096Z,38.33
2022-08-04T09:47:53.136Z,37.67
2022-08-04T09:50:49.927Z,37.78
2022-08-04T09:54:30.588Z,38.51
2022-08-04T09:57:31.378Z,38.20
2022-08-04T10:00:13.580Z,38.55
2022-08-04T10:02:55.101Z,37.66
2022-08-04T10:05:37.961Z,37.11
2022-08-04T10:08:48.305Z,37.08
2022-08-04T10:11:55.715Z,37.93
2022-08-04T10:14:44.496Z,38.52
2022-08-04T10:17:52.264Z,38.38
2022-08-04T10:20:59.027Z,37.85
2022-08-04T10:24:07.277Z,38.01
2022-08-04T10:27:00.174Z,36.22
2022-08-04T10:29:30.539Z,36.69
2022-08-04T10:32:12.094Z,36.61
2022-08-04T10:34:58.037Z,36.65
2022-08-04T10:38:01.064Z,37.23
2022-08-04T10:40:51.032Z,35.45
2022-08-04T10:43:36.063Z,35.62
2022-08-04T10:46:16.908Z,35.93
2022-08-04T10:49:08.402Z,36.52
2022-08-04T10:52:20.817Z,36.40
2022-08-04T10:55:06.957Z,38.53
2022-08-04T10:57:51.831Z,37.95
2022-08-04T11:00:27.383Z,36.80
2022-08-04T11:03:23.088Z,36.85
2022-08-04T11:05:55.566Z,35.66
2022-08-04T11:08:47.693Z,36.22
2022-08-04T11:12:00.446Z,37.62
2022-08-04T11:14:45.241Z,39.55
2022-08-04T11:17:21.298Z,39.36
2022-08-04T11:20:36.001Z,38.05
2022-08-04T11:23:10.610Z,37.92
2022-08-04T11:25:47.218Z,39.16
2022-08-04T11:28:39.606Z,39.94
2022-08-04T11:31:20.022Z,40.19
2022-08-04T11:34:09.994Z,40.21
2022-08-04T11:37:19.198Z,39.85
2022-08-04T11:40:20.905Z,41.37
2022-08-04T11:43:12.528Z,41.70
2022-08-04T11:45:53.205Z,41.49
2022-08-04T11:48:32.829Z,39.69
2022-08-04T11:51:02.450Z,40.47
2022-08-04T11:53:37.227Z,38.52
2022-08-04T11:56:11.441Z,38.93
2022-08-04T11:58:39.538Z,38.82
2022-08-04T12:01:21.701Z,39.25
2022-08-04T12:04:13.489Z,39.21
2022-08-04T12:07:21.882Z,39.97
2022-08-04T12:10:08.189Z,40.41
2022-08-04T12:12:52.230Z,39.63
2022-08-04T12:15:36.228Z,39.93
2022-08-04T12:18:22.897Z,39.70
2022-08-04T12:21:02.066Z,39.71
2022-08-04T12:23:38.402Z,40.43
2022-08-04T12:26:15.700Z,40.56
2022-08-04T12:29:09.109Z,40.46
2022-08-04T12:31:51.110Z,40.52
2022-08-04T12:34:34.200Z,41.84
2022-08-04T12:37:23.419Z,41.95
2022-08-04T12:40:28.457Z,41.96
2022-08-04T12:42:59.897Z,41.55
2022-08-04T12:45:28.781Z,40.56
2022-08-04T12:47:59.284Z,40.09
2022-08-04T12:50:30.030Z,39.68
2022-08-04T12:53:03.478Z,40.19
2022-08-04T12:55:35.377Z,40.86
2022-08-04T12:58:10.878Z,41.01
2022-08-04T13:00:41.667Z,41.51
2022-08-04T13:03:16.819Z,41.64
2022-08-04T13:05:46.410Z,41.60
2022-08-04T13:08:15.231Z,41.26
2022-08-04T13:10:46.715Z,41.29
2022-08-04T13:13:24.453Z,40.60
2022-08-04T13:16:02.142Z,41.27
2022-08-04T13:18:32.926Z,41.35
2022-08-04T13:21:23.171Z,42.14
2022-08-04T13:24:21.307Z,41.57
2022-08-04T13:27:03.918Z,41.67
2022-08-04T13:29:58.119Z,42.42
2022-08-04T13:32:28.975Z,42.99
2022-08-04T13:35:00.224Z,41.36
2022-08-04T13:37:36.619Z,40.40
2022-08-04T13:40:11.786Z,41.76
2022-08-04T13:42:40.352Z,42.59
2022-08-04T13:45:09.843Z,43.60
2022-08-04T13:47:40.330Z,43.75
2022-08-04T13:50:13.103Z,45.67
2022-08-04T13:52:42.776Z,46.00
2022-08-04T13:55:29.346Z,45.51
2022-08-04T13:58:10.057Z,46.23
2022-08-04T14:00:59.637Z,46.71
2022-08-04T14:03:53.496Z,45.02
2022-08-04T14:06:44.315Z,41.99
2022-08-04T14:09:35.178Z,41.82
2022-08-04T14:12:45.789Z,43.08
2022-08-04T14:14:59.089Z,44.59
2022-08-04T14:17:30.540Z,40.46
2022-08-04T14:19:59.127Z,40.10
2022-08-04T14:22:25.719Z,40.32
2022-08-04T14:25:15.430Z,40.65
2022-08-04T14:27:50.949Z,42.24
2022-08-04T14:30:33.344Z,40.96
2022-08-04T14:34:01.116Z,41.57
2022-08-04T14:35:59.223Z,40.67
2022-08-04T14:39:01.599Z,37.81
2022-08-04T14:41:43.698Z,39.15
2022-08-04T14:44:10.634Z,41.18
2022-08-04T14:46:51.683Z,42.44
2022-08-04T14:49:18.775Z,43.40
2022-08-04T14:52:05.887Z,45.57
2022-08-04T14:54:35.481Z,46.02
2022-08-04T14:57:07.946Z,46.56
2022-08-04T14:59:59.059Z,44.70
2022-08-04T15:02:29.936Z,42.31
2022-08-04T15:04:59.137Z,43.93
2022-08-04T15:07:46.062Z,46.47
2022-08-04T15:10:13.506Z,44.97
2022-08-04T15:12:40.728Z,45.87
2022-08-04T15:15:34.058Z,43.55
2022-08-04T15:17:55.358Z,44.73
2022-08-04T15:20:22.830Z,45.95
2022-08-04T15:22:49.813Z,45.74
2022-08-04T15:25:17.433Z,45.36
2022-08-04T15:27:48.977Z,45.41
2022-08-04T15:30:18.163Z,46.94
2022-08-04T15:32:53.022Z,46.17
2022-08-04T15:35:28.904Z,46.27
2022-08-04T15:38:15.063Z,44.92
2022-08-04T15:41:00.021Z,43.42
2022-08-04T15:44:17.708Z,43.12
2022-08-04T15:46:47.370Z,43.03
2022-08-04T15:49:25.763Z,44.33
2022-08-04T15:52:11.849Z,44.86
2022-08-04T15:54:42.154Z,44.36
2022-08-04T15:57:14.168Z,45.40
2022-08-04T16:00:03.222Z,44.77
2022-08-04T16:02:32.365Z,46.19
2022-08-04T16:05:17.713Z,47.60
2022-08-04T16:08:00.250Z,47.63
2022-08-04T16:10:32.815Z,48.16
2022-08-04T16:13:08.671Z,49.81
2022-08-04T16:15:45.165Z,49.02
2022-08-04T16:18:27.254Z,48.60
2022-08-04T16:21:05.814Z,49.70
2022-08-04T16:23:56.093Z,51.32
2022-08-04T16:26:45.393Z,51.12
2022-08-04T16:29:37.720Z,51.75
2022-08-04T16:32:18.380Z,52.67
2022-08-04T16:35:01.365Z,52.25
2022-08-04T16:37:42.811Z,51.36
2022-08-04T16:40:37.598Z,49.19
2022-08-04T16:43:13.218Z,49.44
2022-08-04T16:46:00.521Z,49.29
2022-08-04T16:48:30.347Z,50.26
2022-08-04T16:51:12.994Z,49.78
2022-08-04T16:53:57.828Z,50.80
2022-08-04T16:56:34.715Z,50.49
2022-08-04T16:59:13.591Z,46.44
2022-08-04T17:01:52.239Z,43.93
2022-08-04T17:04:32.762Z,46.06
2022-08-04T17:07:05.671Z,46.06
2022-08-04T17:09:33.372Z,45.98
2022-08-04T17:12:02.268Z,45.75
2022-08-04T17:14:31.943Z,45.23
2022-08-04T17:17:02.421Z,43.86
2022-08-04T17:19:29.511Z,44.17
2022-08-04T17:22:07.371Z,45.21
2022-08-04T17:24:41.051Z,45.44
2022-08-04T17:28:09.650Z,45.03
2022-08-04T17:29:55.831Z,44.37
2022-08-04T17:32:23.687Z,44.34
2022-08-04T17:34:55.398Z,44.11
2022-08-04T17:37:40.137Z,43.46
2022-08-04T17:40:18.549Z,42.43
2022-08-04T17:44:04.923Z,42.13
2022-08-04T17:46:45.680Z,40.95
2022-08-04T17:49:18.492Z,40.75
2022-08-04T17:52:06.373Z,40.79
2022-08-04T17:54:39.987Z,40.83
2022-08-04T17:57:21.337Z,40.88
2022-08-04T17:59:56.233Z,40.51
2022-08-04T18:02:34.367Z,40.54
2022-08-04T18:05:07.615Z,40.66
2022-08-04T18:08:35.638Z,40.21
2022-08-04T18:10:51.709Z,40.29
2022-08-04T18:13:26.273Z,40.12
2022-08-04T18:16:14.565Z,40.08
2022-08-04T18:19:14.606Z,39.56
2022-08-04T18:21:45.583Z,39.50
2022-08-04T18:24:15.250Z,39.26
2022-08-04T18:26:43.298Z,39.10
2022-08-04T18:29:30.915Z,38.84
2022-08-04T18:31:58.852Z,38.76
2022-08-04T18:34:27.231Z,38.68
2022-08-04T18:36:59.053Z,38.38
2022-08-04T18:40:09.714Z,38.50
2022-08-04T18:42:16.115Z,38.28
2022-08-04T18:44:52.282Z,38.10
2022-08-04T18:47:24.970Z,37.52
2022-08-04T18:51:00.926Z,37.52
2022-08-04T18:52:45.493Z,37.36
2022-08-04T18:55:55.355Z,37.03
2022-08-04T18:58:06.276Z,36.56
2022-08-04T19:00:35.068Z,36.56
2022-08-04T19:03:02.213Z,36.84
2022-08-04T19:05:38.194Z,36.54
2022-08-04T19:08:32.810Z,35.95
2022-08-04T19:10:59.942Z,35.86
2022-08-04T19:13:30.060Z,35.83
2022-08-04T19:16:01.808Z,32.00
2022-08-04T19:18:28.879Z,31.20
2022-08-04T19:20:55.929Z,30.95
2022-08-04T19:24:28.761Z,30.25
2022-08-04T19:26:23.819Z,30.82
2022-08-04T19:28:56.765Z,30.60
2022-08-04T19:31:28.430Z,30.14
2022-08-04T19:34:04.925Z,30.70
2022-08-04T19:36:34.579Z,30.27
2022-08-04T19:39:11.365Z,29.59
2022-08-04T19:42:05.716Z,28.86
2022-08-04T19:44:29.975Z,29.35
2022-08-04T19:47:00.883Z,29.48
2022-08-04T19:50:03.233Z,30.47
2022-08-04T19:52:34.016Z,29.72
2022-08-04T19:55:09.858Z,30.16
2022-08-04T19:57:46.168Z,30.86
2022-08-04T20:00:14.515Z,31.03
2022-08-04T20:02:42.097Z,31.34
2022-08-04T20:05:09.627Z,30.90
2022-08-04T20:07:37.194Z,30.78
2022-08-04T20:10:05.837Z,31.22
2022-08-04T20:12:33.845Z,31.78
2022-08-04T20:15:01.216Z,30.65
2022-08-04T20:18:07.126Z,29.84
2022-08-04T20:23:01.552Z,29.70
2022-08-04T20:25:36.426Z,29.61
2022-08-04T20:28:05.082Z,29.62
2022-08-04T20:30:33.266Z,29.92
2022-08-04T20:33:01.357Z,29.91
2022-08-04T20:35:32.472Z,29.86
2022-08-04T20:38:32.790Z,29.80
2022-08-04T20:41:01.759Z,29.80
2022-08-04T20:43:31.368Z,28.83
2022-08-04T20:45:59.674Z,29.86
2022-08-04T20:48:33.897Z,31.07
2022-08-04T20:51:00.778Z,31.53
2022-08-04T20:53:32.561Z,31.55
2022-08-04T20:56:30.235Z,30.28
2022-08-04T20:59:00.014Z,28.90
2022-08-04T21:01:30.452Z,28.82
2022-08-04T21:04:27.448Z,29.41
2022-08-04T21:06:57.418Z,29.65
2022-08-04T21:09:37.199Z,30.40
2022-08-04T21:12:06.126Z,28.08
2022-08-04T21:14:33.044Z,27.49
2022-08-04T21:17:00.513Z,27.96
2022-08-04T21:19:28.504Z,28.90
2022-08-04T21:21:55.385Z,29.91
2022-08-04T21:24:26.192Z,30.24
2022-08-04T21:26:57.342Z,29.27
2022-08-04T21:29:29.557Z,28.28
2022-08-04T21:32:07.743Z,27.73
2022-08-04T21:34:39.379Z,28.35
2022-08-04T21:37:10.067Z,29.47
2022-08-04T21:39:50.275Z,29.68
2022-08-04T21:42:27.768Z,29.75
2022-08-04T21:44:55.329Z,29.15
2022-08-04T21:47:23.782Z,29.58
2022-08-04T21:49:56.357Z,29.65
2022-08-04T21:52:24.059Z,29.11
2022-08-04T21:54:54.431Z,28.48
2022-08-04T21:57:24.790Z,29.12
2022-08-04T22:00:10.752Z,28.92
2022-08-04T22:02:45.003Z,28.09
2022-08-04T22:05:11.913Z,26.98
2022-08-04T22:07:50.996Z,27.90
2022-08-04T22:10:32.126Z,28.13
2022-08-04T22:16:03.738Z,28.73
2022-08-04T22:18:32.174Z,28.18
2022-08-04T22:23:53.015Z,28.36
2022-08-04T22:26:26.925Z,26.80
2022-08-04T22:28:56.170Z,25.38
2022-08-04T22:31:25.564Z,24.77
2022-08-04T22:33:53.937Z,24.72
2022-08-04T22:36:24.967Z,24.46
2022-08-04T22:39:04.112Z,25.14
2022-08-04T22:41:33.865Z,24.78
2022-08-04T22:44:15.928Z,24.73
2022-08-04T22:46:42.970Z,24.48
2022-08-04T22:49:09.719Z,24.37
2022-08-04T22:51:36.397Z,24.33
2022-08-04T22:54:12.356Z,24.08
2022-08-04T22:56:39.501Z,24.76
2022-08-04T22:59:10.882Z,26.90
2022-08-04T23:01:59.179Z,27.33
2022-08-04T23:04:26.062Z,28.21
2022-08-04T23:06:54.395Z,28.76
2022-08-04T23:09:22.275Z,28.58
2022-08-04T23:12:24.574Z,29.24
2022-08-04T23:14:54.832Z,28.81
2022-08-04T23:17:22.241Z,29.17
2022-08-04T23:19:58.291Z,28.41
2022-08-04T23:22:41.763Z,28.16
2022-08-04T23:25:16.446Z,27.89
2022-08-04T23:27:48.142Z,27.55
2022-08-04T23:30:19.890Z,26.84
2022-08-04T23:32:48.811Z,25.43
2022-08-04T23:35:16.505Z,24.27
2022-08-04T23:37:56.222Z,23.86
2022-08-04T23:40:32.930Z,23.26
2022-08-04T23:43:17.117Z,23.41
2022-08-04T23:46:04.978Z,23.49
2022-08-04T23:48:33.261Z,22.75
2022-08-04T23:51:14.007Z,22.88
2022-08-04T23:54:01.524Z,22.36
2022-08-04T23:56:31.794Z,22.04
2022-08-04T23:59:00.197Z,22.09
